CheckWX is a tool to help pilots better visualize weather data.  It is not intended as a substitute for an official pre-flight weather briefing.

08:38:01 UTC

YBBN METAR
Brisbane International Airport
Brisbane, Australia
Current

38 mins ago

YBBN 170800Z 04005KT CAVOK 14/11 Q1016 FM0900 32006KT CAVOK
Observed
Jul-17 @ 08:00 UTC
Wind
  • 040° at 5 KTS
Visibility
10,000+ meters
Flight Rules
VFR
Cloud Levels
  • Clear skies
Temperature
14°C / 57°F
Dewpoint
11°C / 52°F
Humidity
82%
Altimeter
30" Hg
Pressure
1015.92 hPa
Previous

1 hour ago

YBBN 170730Z 04006KT CAVOK 14/12 Q1016 FM0900 32006KT CAVOK
Observed
Jul-17 @ 07:30 UTC
Wind
  • 040° at 6 KTS
Visibility
10,000+ meters
Flight Rules
VFR
Cloud Levels
  • Clear skies
Temperature
14°C / 57°F
Dewpoint
12°C / 54°F
Humidity
88%
Altimeter
30" Hg
Pressure
1015.92 hPa
Previous

2 hours ago

YBBN 170700Z 04006KT CAVOK 16/11 Q1016
Observed
Jul-17 @ 07:00 UTC
Wind
  • 040° at 6 KTS
Visibility
10,000+ meters
Flight Rules
VFR
Cloud Levels
  • Clear skies
Temperature
16°C / 61°F
Dewpoint
11°C / 52°F
Humidity
72%
Altimeter
30" Hg
Pressure
1015.92 hPa